createdAt,value
2023-04-08T00:00:00.117Z,5.9
2023-04-08T00:05:00.343Z,7.8
2023-04-08T00:10:00.124Z,7.9
2023-04-08T00:15:00.140Z,12.3
2023-04-08T00:20:00.117Z,12
2023-04-08T00:25:00.116Z,9.9
2023-04-08T00:30:00.120Z,9.3
2023-04-08T00:35:00.129Z,9.6
2023-04-08T00:40:00.131Z,10.8
2023-04-08T00:45:00.117Z,10.8
2023-04-08T00:50:00.140Z,10.5
2023-04-08T00:55:00.107Z,9.8
2023-04-08T01:00:00.208Z,8.2
2023-04-08T01:05:00.134Z,7.3
2023-04-08T01:10:00.102Z,7.3
2023-04-08T01:15:00.119Z,6.8
2023-04-08T01:20:00.156Z,6.8
2023-04-08T01:25:00.113Z,8.9
2023-04-08T01:30:00.112Z,7.2
2023-04-08T01:35:00.121Z,9.8
2023-04-08T01:40:00.170Z,10.1
2023-04-08T01:45:00.106Z,9.2
2023-04-08T01:50:00.120Z,9.3
2023-04-08T01:55:00.134Z,9.9
2023-04-08T02:00:00.124Z,10.1
2023-04-08T02:05:00.120Z,9.4
2023-04-08T02:10:00.139Z,10.3
2023-04-08T02:15:00.117Z,9.5
2023-04-08T02:20:00.167Z,9.8
2023-04-08T02:25:00.120Z,9.6
2023-04-08T02:30:00.124Z,8.7
2023-04-08T02:35:00.120Z,6.6
2023-04-08T02:40:00.135Z,7.2
2023-04-08T02:45:00.134Z,8.8
2023-04-08T02:50:00.128Z,11.2
2023-04-08T02:55:00.125Z,13
2023-04-08T03:00:00.180Z,12.5
2023-04-08T03:05:00.157Z,13.6
2023-04-08T03:10:00.130Z,11.7
2023-04-08T03:15:00.145Z,10.6
2023-04-08T03:20:00.109Z,10.6
2023-04-08T03:25:00.153Z,8
2023-04-08T03:30:00.144Z,8.5
2023-04-08T03:35:00.129Z,7.7
2023-04-08T03:40:00.124Z,10.9
2023-04-08T03:45:00.135Z,10.9
2023-04-08T03:50:00.121Z,11
2023-04-08T03:55:00.118Z,10.4
2023-04-08T04:00:00.165Z,10
2023-04-08T04:05:00.254Z,8
2023-04-08T04:10:00.170Z,8
2023-04-08T04:15:00.112Z,9.2
2023-04-08T04:20:00.159Z,11.3
2023-04-08T04:25:00.124Z,11.7
2023-04-08T04:30:00.106Z,10.1
2023-04-08T04:35:00.124Z,12.2
2023-04-08T04:40:00.121Z,11.9
2023-04-08T04:45:00.129Z,11.6
2023-04-08T04:50:00.107Z,10.2
2023-04-08T04:55:00.125Z,11.1
2023-04-08T05:00:00.110Z,11.1
2023-04-08T05:05:00.172Z,14.2
2023-04-08T05:10:00.119Z,15.2
2023-04-08T05:15:00.153Z,13.6
2023-04-08T05:20:00.172Z,12.4
2023-04-08T05:25:00.126Z,13.6
2023-04-08T05:30:00.161Z,13.6
2023-04-08T05:35:00.110Z,13.2
2023-04-08T05:40:00.143Z,12.8
2023-04-08T05:45:00.135Z,16.4
2023-04-08T05:50:00.138Z,14.1
2023-04-08T05:55:00.146Z,13.2
2023-04-08T06:00:00.174Z,14.9
2023-04-08T06:05:00.197Z,17.5
2023-04-08T06:10:00.155Z,14.6
2023-04-08T06:15:00.113Z,13.8
2023-04-08T06:20:00.094Z,14.9
2023-04-08T06:25:00.125Z,13.8
2023-04-08T06:30:00.113Z,18.5
2023-04-08T06:35:00.114Z,15.5
2023-04-08T06:40:00.165Z,15.5
2023-04-08T06:45:00.103Z,17.5
2023-04-08T06:50:00.118Z,16.7
2023-04-08T06:55:00.109Z,14.3
2023-04-08T07:00:00.114Z,17.4
2023-04-08T07:05:00.104Z,17.4
2023-04-08T07:10:00.102Z,20
2023-04-08T07:15:00.113Z,20.9
2023-04-08T07:20:00.112Z,18.1
2023-04-08T07:25:00.108Z,18.6
2023-04-08T07:30:00.137Z,17.4
2023-04-08T07:35:00.109Z,15.9
2023-04-08T07:40:00.184Z,17.1
2023-04-08T07:45:00.131Z,15.1
2023-04-08T07:50:00.119Z,17.7
2023-04-08T07:55:00.104Z,17.9
2023-04-08T08:00:00.133Z,17.9
2023-04-08T08:05:00.141Z,12.4
2023-04-08T08:10:00.151Z,12.7
2023-04-08T08:15:00.120Z,13.9
2023-04-08T08:20:00.159Z,12
2023-04-08T08:25:00.131Z,12.5
2023-04-08T08:30:00.145Z,13.1
2023-04-08T08:35:00.116Z,12.5
2023-04-08T08:40:00.139Z,14.1
2023-04-08T08:45:00.113Z,14.1
2023-04-08T08:50:00.145Z,15.1
2023-04-08T08:55:00.169Z,16.5
2023-04-08T09:00:00.139Z,13.1
2023-04-08T09:05:00.257Z,14.5
2023-04-08T09:10:00.161Z,17.2
2023-04-08T09:15:00.099Z,17.2
2023-04-08T09:20:00.139Z,18.7
2023-04-08T09:25:00.110Z,14.8
2023-04-08T09:30:00.114Z,15.5
2023-04-08T09:35:00.119Z,15.5
2023-04-08T09:40:00.135Z,12.8
2023-04-08T09:45:00.139Z,17.3
2023-04-08T09:50:00.149Z,17.5
2023-04-08T09:55:00.137Z,11.4
2023-04-08T10:00:00.124Z,15.5
2023-04-08T10:05:00.229Z,15.5
2023-04-08T10:10:00.213Z,15.7
2023-04-08T10:15:00.117Z,14.3
2023-04-08T10:20:00.120Z,9.5
2023-04-08T10:25:00.129Z,9.5
2023-04-08T10:30:00.097Z,7.6
2023-04-08T10:35:00.130Z,10
2023-04-08T10:40:00.107Z,13.8
2023-04-08T10:45:00.116Z,14.1
2023-04-08T10:50:00.154Z,12.8
2023-04-08T10:55:00.098Z,11.9
2023-04-08T11:00:00.138Z,13
2023-04-08T11:05:00.144Z,13.2
2023-04-08T11:10:00.152Z,12.7
2023-04-08T11:15:00.123Z,14.6
2023-04-08T11:20:00.109Z,14.6
2023-04-08T11:25:00.133Z,14.6
2023-04-08T11:30:00.175Z,13.7
2023-04-08T11:35:00.125Z,15.9
2023-04-08T11:40:00.129Z,14.2
2023-04-08T11:45:00.101Z,11.2
2023-04-08T11:50:00.112Z,15.2
2023-04-08T11:55:00.109Z,14
2023-04-08T12:00:00.112Z,15.8
2023-04-08T12:05:00.168Z,12.1
2023-04-08T12:10:00.103Z,9.6
2023-04-08T12:15:00.101Z,14.9
2023-04-08T12:20:00.147Z,11.5
2023-04-08T12:25:00.132Z,15.2
2023-04-08T12:30:05.114Z,16.4
2023-04-08T12:35:00.128Z,11.6
2023-04-08T12:40:00.161Z,9.7
2023-04-08T12:45:00.128Z,13.2
2023-04-08T12:50:00.161Z,11.7
2023-04-08T12:55:00.132Z,12.4
2023-04-08T13:00:00.126Z,12.5
2023-04-08T13:05:00.212Z,10.8
2023-04-08T13:10:00.164Z,8.8
2023-04-08T13:15:00.126Z,10.7
2023-04-08T13:20:00.168Z,8.8
2023-04-08T13:25:00.301Z,9.9
2023-04-08T13:30:00.139Z,11.1
2023-04-08T13:35:00.530Z,8.7
2023-04-08T13:40:00.304Z,7.7
2023-04-08T13:45:00.242Z,8.1
2023-04-08T13:50:00.168Z,8.1
2023-04-08T13:55:00.150Z,10
2023-04-08T14:00:00.112Z,8.2
2023-04-08T14:05:00.117Z,10
2023-04-08T14:10:00.151Z,9.8
2023-04-08T14:15:00.119Z,5.5
2023-04-08T14:20:00.144Z,5.7
2023-04-08T14:25:00.139Z,9.3
2023-04-08T14:30:00.135Z,13.3
2023-04-08T14:35:00.134Z,14.8
2023-04-08T14:40:00.126Z,13.5
2023-04-08T14:45:00.121Z,15
2023-04-08T14:50:00.130Z,17.2
2023-04-08T14:55:00.101Z,18
2023-04-08T15:00:00.195Z,16
2023-04-08T15:05:00.129Z,12.8
2023-04-08T15:10:00.139Z,21.9
2023-04-08T15:15:00.206Z,26.4
2023-04-08T15:20:00.162Z,22.5
2023-04-08T15:25:00.320Z,21.5
2023-04-08T15:30:00.154Z,27.2
2023-04-08T15:35:00.123Z,23.9
2023-04-08T15:40:00.143Z,23.1
2023-04-08T15:45:00.113Z,24.2
2023-04-08T15:50:00.212Z,27.8
2023-04-08T15:55:00.115Z,24.1
2023-04-08T16:00:00.298Z,25.3
2023-04-08T16:05:00.242Z,29.8
2023-04-08T16:10:00.225Z,25.7
2023-04-08T16:15:00.275Z,18.1
2023-04-08T16:20:00.186Z,26.1
2023-04-08T16:25:00.132Z,27.1
2023-04-08T16:30:00.355Z,19.4
2023-04-08T16:35:00.307Z,18.2
2023-04-08T16:40:00.366Z,23.6
2023-04-08T16:45:00.224Z,23.4
2023-04-08T16:50:00.123Z,16.9
2023-04-08T16:55:00.128Z,16.9
2023-04-08T17:00:00.104Z,16.9
2023-04-08T17:05:00.125Z,13.2
2023-04-08T17:10:00.104Z,13.9
2023-04-08T17:15:00.121Z,12.6
2023-04-08T17:20:00.146Z,10.6
2023-04-08T17:25:00.108Z,9.4
2023-04-08T17:30:00.130Z,11.4
2023-04-08T17:35:00.124Z,11.7
2023-04-08T17:40:00.193Z,14
2023-04-08T17:45:00.169Z,12.9
2023-04-08T17:50:00.127Z,11.9
2023-04-08T17:55:00.117Z,9
2023-04-08T18:00:00.170Z,10.9
2023-04-08T18:05:00.112Z,11.2
2023-04-08T18:10:00.141Z,10.2
2023-04-08T18:15:00.127Z,11.4
2023-04-08T18:20:00.226Z,13.1
2023-04-08T18:25:00.098Z,12.7
2023-04-08T18:30:00.154Z,11.6
2023-04-08T18:35:00.124Z,12.6
2023-04-08T18:40:00.134Z,10.9
2023-04-08T18:45:00.114Z,9
2023-04-08T18:50:00.105Z,7.1
2023-04-08T18:55:00.140Z,7.9
2023-04-08T19:00:00.096Z,10.6
2023-04-08T19:05:00.112Z,10.6
2023-04-08T19:10:00.124Z,10.7
2023-04-08T19:15:00.113Z,11.5
2023-04-08T19:20:00.124Z,13
2023-04-08T19:25:00.140Z,13.2
2023-04-08T19:30:00.131Z,13.1
2023-04-08T19:35:00.101Z,11.3
2023-04-08T19:40:00.094Z,10.1
2023-04-08T19:45:00.103Z,12.6
2023-04-08T19:50:00.120Z,12.7
2023-04-08T19:55:00.163Z,12.4
2023-04-08T20:00:00.083Z,12.9
2023-04-08T20:05:00.093Z,11.8
2023-04-08T20:10:00.097Z,12.3
2023-04-08T20:15:00.110Z,13.5
2023-04-08T20:20:00.157Z,13.7
2023-04-08T20:25:00.134Z,12.8
2023-04-08T20:30:00.139Z,14.2
2023-04-08T20:35:00.120Z,12.8
2023-04-08T20:40:00.137Z,12.8
2023-04-08T20:45:00.106Z,11.2
2023-04-08T20:50:00.113Z,11.8
2023-04-08T20:55:00.096Z,11.3
2023-04-08T21:00:00.140Z,9.8
2023-04-08T21:05:00.161Z,9
2023-04-08T21:10:00.115Z,9.6
2023-04-08T21:15:00.133Z,8.9
2023-04-08T21:20:00.102Z,9.5
2023-04-08T21:25:00.131Z,8.1
2023-04-08T21:30:00.129Z,9.4
2023-04-08T21:35:00.122Z,9.5
2023-04-08T21:40:00.145Z,10.4
2023-04-08T21:45:00.162Z,13
2023-04-08T21:50:00.118Z,11.7
2023-04-08T21:55:00.112Z,13
2023-04-08T22:00:00.116Z,13.2
2023-04-08T22:05:00.115Z,12.7
2023-04-08T22:10:01.761Z,12.3
2023-04-08T22:15:00.117Z,12.6
2023-04-08T22:20:00.122Z,14
2023-04-08T22:25:00.103Z,13.6
2023-04-08T22:30:00.178Z,13.6
2023-04-08T22:35:00.144Z,11.2
2023-04-08T22:40:00.329Z,10.9
2023-04-08T22:45:00.150Z,10.8
2023-04-08T22:50:00.139Z,10.9
2023-04-08T22:55:00.132Z,9.5
2023-04-08T23:00:01.577Z,10.3
2023-04-08T23:05:00.134Z,10
2023-04-08T23:10:00.143Z,9.2
2023-04-08T23:15:00.097Z,11.4
2023-04-08T23:20:00.161Z,11
2023-04-08T23:25:00.144Z,11.7
2023-04-08T23:30:00.163Z,11.4
2023-04-08T23:35:00.122Z,11.5
2023-04-08T23:40:00.165Z,11.5
2023-04-08T23:45:00.108Z,10.8
2023-04-08T23:50:00.115Z,12.1
2023-04-08T23:55:00.149Z,11.6
